CMA CGM Musca — 2CAC8 — position and weather

sailwx.info

Track history (hours):
 
Tides and Currents Weather Stations Pressure Air Temp Water Temp Dewpoint Dewpoint Depression Visibility Wind Speed Wind Dir Waves Ship Positions

CMA CGM Musca

Last reported at 2017-Aug-06 04:51 UTC. Time now 2017-Aug-17 09:54 UTC.
Position N 16°37' E 041°02'.
Warning: this ship's position is 11 days out of date.

Length 347 m; draft 13.7 m.

Type: Ship (hazmat cat A). MMSI: 235070914.

Date/timePositionNaut miles runAvg speedWind from/ knotsBaromVisibWave heightAir tempDewpointWater temp
2017-Aug-06 04:51N 16°37' E 041°02'618.0
2017-Aug-06 04:30N 16°43' E 040°59'918.0
2017-Aug-06 04:00N 16°51' E 040°54'  
2017-Aug-02 20:55N 31°29' E 032°19'4814.6
2017-Aug-02 17:39N 32°04' E 032°57'318.6
2017-Aug-02 17:29N 32°06' E 032°60'1718.6
2017-Aug-02 16:34N 32°18' E 033°14'718.6
2017-Aug-02 16:12N 32°23' E 033°20'718.5
2017-Aug-02 15:50N 32°27' E 033°26'818.5
2017-Aug-02 15:23N 32°33' E 033°33'718.2
2017-Aug-02 14:59N 32°38' E 033°39'8518.6
2017-Aug-02 10:26N 33°37' E 034°52'818.8
2017-Aug-02 10:00N 33°43' E 034°59'918.7
2017-Aug-02 09:30N 33°50' E 035°06'1117.0
2017-Aug-02 08:51N 33°54' E 035°19'  
2017-Jul-29 18:55N 35°49' E 014°32'0 0.0
2017-Jul-29 18:28N 35°49' E 014°32'0 0.0
2017-Jul-29 18:00N 35°49' E 014°32'0 0.0
2017-Jul-29 17:30N 35°49' E 014°32'0 0.0
2017-Jul-29 16:57N 35°49' E 014°32'0 0.0
2017-Jul-29 16:27N 35°49' E 014°32'0 0.0
2017-Jul-29 16:00N 35°49' E 014°32'0 0.0
2017-Jul-29 15:20N 35°49' E 014°32'0 0.0
2017-Jul-29 13:53N 35°49' E 014°32'0 0.0
2017-Jul-29 13:25N 35°49' E 014°32'0 0.0
2017-Jul-29 12:58N 35°49' E 014°32'0 0.0
2017-Jul-29 12:25N 35°49' E 014°32'0 0.0
2017-Jul-29 11:58N 35°49' E 014°32'0 0.0
2017-Jul-29 11:25N 35°49' E 014°32'0 0.0
2017-Jul-29 11:00N 35°49' E 014°32'0 0.0
2017-Jul-29 10:30N 35°49' E 014°32'0 0.0
2017-Jul-29 09:27N 35°49' E 014°32'0 0.0
2017-Jul-29 08:56N 35°49' E 014°32'0 0.0
2017-Jul-29 08:20N 35°49' E 014°32'0 0.0
2017-Jul-29 07:59N 35°49' E 014°32'0 0.0
2017-Jul-29 07:29N 35°49' E 014°32'0 0.0
2017-Jul-29 06:59N 35°49' E 014°32'0 0.0
2017-Jul-29 06:25N 35°49' E 014°32'0 0.0
2017-Jul-29 05:55N 35°49' E 014°32'0 0.0
2017-Jul-29 02:36N 35°49' E 014°32'0 0.0
2017-Jul-29 02:30N 35°49' E 014°32'0 0.0
2017-Jul-29 01:59N 35°49' E 014°32'0 0.0
2017-Jul-29 01:29N 35°49' E 014°32'0 0.0
2017-Jul-29 00:59N 35°49' E 014°32'0 0.0
2017-Jul-29 00:29N 35°49' E 014°32'0 0.0
2017-Jul-28 23:59N 35°49' E 014°32'0 0.0
2017-Jul-28 23:28N 35°49' E 014°32'0 0.0
2017-Jul-28 22:58N 35°49' E 014°32'0 0.0
2017-Jul-28 22:28N 35°49' E 014°32'0 0.0
2017-Jul-28 21:49N 35°49' E 014°32'0 0.0
2017-Jul-28 21:30N 35°49' E 014°32'0 0.0
2017-Jul-28 20:57N 35°49' E 014°32'1 1.1
2017-Jul-28 20:28N 35°49' E 014°33'3 7.0
2017-Jul-28 20:00N 35°47' E 014°36'4 8.5
2017-Jul-28 19:30N 35°45' E 014°32'918.5
2017-Jul-28 19:00N 35°47' E 014°21'1020.9
2017-Jul-28 18:30N 35°52' E 014°10'1021.0
2017-Jul-28 18:00N 35°58' E 013°59'1121.1
2017-Jul-28 17:30N 36°04' E 013°48'1121.0
2017-Jul-28 17:00N 36°09' E 013°37'1021.1
2017-Jul-28 16:30N 36°15' E 013°26'1121.2
2017-Jul-28 16:00N 36°21' E 013°15'1121.0
2017-Jul-28 15:30N 36°27' E 013°04'1021.1
2017-Jul-28 15:00N 36°32' E 012°53'1020.8
2017-Jul-28 14:30N 36°38' E 012°42'1020.8
2017-Jul-28 14:00N 36°44' E 012°31'1020.8
2017-Jul-28 13:30N 36°49' E 012°20'1120.9
2017-Jul-28 13:00N 36°54' E 012°09'1121.2
2017-Jul-28 12:30N 37°00' E 011°58'1020.8
2017-Jul-28 12:00N 37°05' E 011°47'1020.6
2017-Jul-28 11:30N 37°11' E 011°35'1220.2
2017-Jul-28 10:55N 37°22' E 011°33'1120.7
2017-Jul-28 10:24N 37°33' E 011°30'820.6
2017-Jul-28 10:00N 37°41' E 011°28'1020.8
2017-Jul-28 09:30N 37°51' E 011°25'1120.8
2017-Jul-28 08:58N 38°02' E 011°22'7120.8
2017-Jul-28 05:34N 39°10' E 010°58'220.8
2017-Jul-28 05:27N 39°13' E 010°57'13920.7
2017-Jul-27 22:43N 41°27' E 010°10'420.4
2017-Jul-27 22:30N 41°31' E 010°09'1020.5
2017-Jul-27 22:00N 41°41' E 010°05'1020.7
2017-Jul-27 21:30N 41°51' E 010°01'5320.7
2017-Jul-27 18:58N 42°42' E 009°42'1020.8
2017-Jul-27 18:30N 42°51' E 009°39'1020.5
2017-Jul-27 18:00N 43°01' E 009°35'1019.1
2017-Jul-27 17:30N 43°10' E 009°31'1020.6
2017-Jul-27 17:00N 43°19' E 009°24'1020.7
2017-Jul-27 16:31N 43°28' E 009°18'1020.7
2017-Jul-27 16:00N 43°37' E 009°12'1020.7
2017-Jul-27 15:31N 43°47' E 009°05'1020.6
2017-Jul-27 15:01N 43°56' E 008°59'2020.3
2017-Jul-27 14:01N 44°14' E 008°46'816.9
2017-Jul-27 13:30N 44°22' E 008°43'4 8.7
2017-Jul-27 13:00N 44°25' E 008°47'0 0.3
2017-Jul-27 12:30N 44°25' E 008°47'0 0.0
2017-Jul-27 11:57N 44°25' E 008°47'0 0.0
2017-Jul-27 11:30N 44°25' E 008°47'0 0.0
2017-Jul-27 11:00N 44°25' E 008°47'0 0.0
2017-Jul-27 10:30N 44°25' E 008°47'0 0.0
2017-Jul-27 09:56N 44°25' E 008°47'0 0.0
2017-Jul-27 09:26N 44°25' E 008°47'0 0.0
2017-Jul-27 08:59N 44°25' E 008°47'0 0.0
2017-Jul-27 08:29N 44°25' E 008°47'0 0.0
2017-Jul-27 07:59N 44°25' E 008°47'0 0.0
2017-Jul-27 07:25N 44°25' E 008°47'0 0.0
2017-Jul-27 06:55N 44°25' E 008°47'0 0.0
2017-Jul-27 06:19N 44°25' E 008°47'0 0.0
2017-Jul-27 05:58N 44°25' E 008°47'0 0.0
2017-Jul-27 05:30N 44°25' E 008°47'0 0.0
2017-Jul-27 04:54N 44°25' E 008°47'  
Track history (hours):
 
Tides and Currents Weather Stations Pressure Air Temp Water Temp Dewpoint Dewpoint Depression Visibility Wind Speed Wind Dir Waves Ship Positions

CMA CGM Musca

Last reported at 2017-Aug-06 04:51 UTC. Time now 2017-Aug-17 09:54 UTC.
Position N 16°37' E 041°02'.
Warning: this ship's position is 11 days out of date.

Length 347 m; draft 13.7 m.

Type: Ship (hazmat cat A). MMSI: 235070914.

Date/timePositionNaut miles runAvg speedWind from/ knotsBaromVisibWave heightAir tempDewpointWater temp
2017-Aug-06 04:51N 16°37' E 041°02'618.0
2017-Aug-06 04:30N 16°43' E 040°59'918.0
2017-Aug-06 04:00N 16°51' E 040°54'  
2017-Aug-02 20:55N 31°29' E 032°19'4814.6
2017-Aug-02 17:39N 32°04' E 032°57'318.6
2017-Aug-02 17:29N 32°06' E 032°60'1718.6
2017-Aug-02 16:34N 32°18' E 033°14'718.6
2017-Aug-02 16:12N 32°23' E 033°20'718.5
2017-Aug-02 15:50N 32°27' E 033°26'818.5
2017-Aug-02 15:23N 32°33' E 033°33'718.2
2017-Aug-02 14:59N 32°38' E 033°39'8518.6
2017-Aug-02 10:26N 33°37' E 034°52'818.8
2017-Aug-02 10:00N 33°43' E 034°59'918.7
2017-Aug-02 09:30N 33°50' E 035°06'1117.0
2017-Aug-02 08:51N 33°54' E 035°19'  
2017-Jul-29 18:55N 35°49' E 014°32'0 0.0
2017-Jul-29 18:28N 35°49' E 014°32'0 0.0
2017-Jul-29 18:00N 35°49' E 014°32'0 0.0
2017-Jul-29 17:30N 35°49' E 014°32'0 0.0
2017-Jul-29 16:57N 35°49' E 014°32'0 0.0
2017-Jul-29 16:27N 35°49' E 014°32'0 0.0
2017-Jul-29 16:00N 35°49' E 014°32'0 0.0
2017-Jul-29 15:20N 35°49' E 014°32'0 0.0
2017-Jul-29 13:53N 35°49' E 014°32'0 0.0
2017-Jul-29 13:25N 35°49' E 014°32'0 0.0
2017-Jul-29 12:58N 35°49' E 014°32'0 0.0
2017-Jul-29 12:25N 35°49' E 014°32'0 0.0
2017-Jul-29 11:58N 35°49' E 014°32'0 0.0
2017-Jul-29 11:25N 35°49' E 014°32'0 0.0
2017-Jul-29 11:00N 35°49' E 014°32'0 0.0
2017-Jul-29 10:30N 35°49' E 014°32'0 0.0
2017-Jul-29 09:27N 35°49' E 014°32'0 0.0
2017-Jul-29 08:56N 35°49' E 014°32'0 0.0
2017-Jul-29 08:20N 35°49' E 014°32'0 0.0
2017-Jul-29 07:59N 35°49' E 014°32'0 0.0
2017-Jul-29 07:29N 35°49' E 014°32'0 0.0
2017-Jul-29 06:59N 35°49' E 014°32'0 0.0
2017-Jul-29 06:25N 35°49' E 014°32'0 0.0
2017-Jul-29 05:55N 35°49' E 014°32'0 0.0
2017-Jul-29 02:36N 35°49' E 014°32'0 0.0
2017-Jul-29 02:30N 35°49' E 014°32'0 0.0
2017-Jul-29 01:59N 35°49' E 014°32'0 0.0
2017-Jul-29 01:29N 35°49' E 014°32'0 0.0
2017-Jul-29 00:59N 35°49' E 014°32'0 0.0
2017-Jul-29 00:29N 35°49' E 014°32'0 0.0
2017-Jul-28 23:59N 35°49' E 014°32'0 0.0
2017-Jul-28 23:28N 35°49' E 014°32'0 0.0
2017-Jul-28 22:58N 35°49' E 014°32'0 0.0
2017-Jul-28 22:28N 35°49' E 014°32'0 0.0
2017-Jul-28 21:49N 35°49' E 014°32'0 0.0
2017-Jul-28 21:30N 35°49' E 014°32'0 0.0
2017-Jul-28 20:57N 35°49' E 014°32'1 1.1
2017-Jul-28 20:28N 35°49' E 014°33'3 7.0
2017-Jul-28 20:00N 35°47' E 014°36'4 8.5
2017-Jul-28 19:30N 35°45' E 014°32'918.5
2017-Jul-28 19:00N 35°47' E 014°21'1020.9
2017-Jul-28 18:30N 35°52' E 014°10'1021.0
2017-Jul-28 18:00N 35°58' E 013°59'1121.1
2017-Jul-28 17:30N 36°04' E 013°48'1121.0
2017-Jul-28 17:00N 36°09' E 013°37'1021.1
2017-Jul-28 16:30N 36°15' E 013°26'1121.2
2017-Jul-28 16:00N 36°21' E 013°15'1121.0
2017-Jul-28 15:30N 36°27' E 013°04'1021.1
2017-Jul-28 15:00N 36°32' E 012°53'1020.8
2017-Jul-28 14:30N 36°38' E 012°42'1020.8
2017-Jul-28 14:00N 36°44' E 012°31'1020.8
2017-Jul-28 13:30N 36°49' E 012°20'1120.9
2017-Jul-28 13:00N 36°54' E 012°09'1121.2
2017-Jul-28 12:30N 37°00' E 011°58'1020.8
2017-Jul-28 12:00N 37°05' E 011°47'1020.6
2017-Jul-28 11:30N 37°11' E 011°35'1220.2
2017-Jul-28 10:55N 37°22' E 011°33'1120.7
2017-Jul-28 10:24N 37°33' E 011°30'820.6
2017-Jul-28 10:00N 37°41' E 011°28'1020.8
2017-Jul-28 09:30N 37°51' E 011°25'1120.8
2017-Jul-28 08:58N 38°02' E 011°22'7120.8
2017-Jul-28 05:34N 39°10' E 010°58'220.8
2017-Jul-28 05:27N 39°13' E 010°57'13920.7
2017-Jul-27 22:43N 41°27' E 010°10'420.4
2017-Jul-27 22:30N 41°31' E 010°09'1020.5
2017-Jul-27 22:00N 41°41' E 010°05'1020.7
2017-Jul-27 21:30N 41°51' E 010°01'5320.7
2017-Jul-27 18:58N 42°42' E 009°42'1020.8
2017-Jul-27 18:30N 42°51' E 009°39'1020.5
2017-Jul-27 18:00N 43°01' E 009°35'1019.1
2017-Jul-27 17:30N 43°10' E 009°31'1020.6
2017-Jul-27 17:00N 43°19' E 009°24'1020.7
2017-Jul-27 16:31N 43°28' E 009°18'1020.7
2017-Jul-27 16:00N 43°37' E 009°12'1020.7
2017-Jul-27 15:31N 43°47' E 009°05'1020.6
2017-Jul-27 15:01N 43°56' E 008°59'2020.3
2017-Jul-27 14:01N 44°14' E 008°46'816.9
2017-Jul-27 13:30N 44°22' E 008°43'4 8.7
2017-Jul-27 13:00N 44°25' E 008°47'0 0.3
2017-Jul-27 12:30N 44°25' E 008°47'0 0.0
2017-Jul-27 11:57N 44°25' E 008°47'0 0.0
2017-Jul-27 11:30N 44°25' E 008°47'0 0.0
2017-Jul-27 11:00N 44°25' E 008°47'0 0.0
2017-Jul-27 10:30N 44°25' E 008°47'0 0.0
2017-Jul-27 09:56N 44°25' E 008°47'0 0.0
2017-Jul-27 09:26N 44°25' E 008°47'0 0.0
2017-Jul-27 08:59N 44°25' E 008°47'0 0.0
2017-Jul-27 08:29N 44°25' E 008°47'0 0.0
2017-Jul-27 07:59N 44°25' E 008°47'0 0.0
2017-Jul-27 07:25N 44°25' E 008°47'0 0.0
2017-Jul-27 06:55N 44°25' E 008°47'0 0.0
2017-Jul-27 06:19N 44°25' E 008°47'0 0.0
2017-Jul-27 05:58N 44°25' E 008°47'0 0.0
2017-Jul-27 05:30N 44°25' E 008°47'0 0.0
2017-Jul-27 04:54N 44°25' E 008°47'  

Dump ship's entire track history